Plumtree, North Carolina
Current Conditions -  °F | °C
As of 3:55 AM on Wednesday 28 Jan 2015 (Local Time) from KTNB Reporting Station
Clear Clear  
Wind Chill:   Ceiling: Unl
Heat Index: 18°   Visibility: 10mi
Dew Point:   Wind: 16mph
Humidity: 53%   Direction: 290°WNW
Pressure: 29.99"   Gusts: 31mph
Location:  36.03°N, 82.01°W
Report Text: KTNB 280855Z AUTO 29014G27KT 10SM CLR M08/M16 A2999 RMK AO2 T10771158
Loading
Personal Weather Stations






























Interactive Weather Map New forecast layout! Learn more

10-Day Weather Forecast

Advertisements
Track Severe Weather on mobile